JBU536 MDST-KJFK
Flight info
| Callsign | JBU536 |
|---|---|
| Flight time | N/A |
| Altitude | 33000 |
| Route | LERED2U LERED DCT LAMER/M079F340 L453 SAUCR/M079F350 Y485 CHUBY/M079F340 Y485 HOBOH/M079F350 Y485 SILLY/N0456F350 Y485 YAALE Y495 MOUGH/N0456F360 Y495 CAMRN |
| Aircraft | A321/M-SDE3FGHIRWY/LB1 |
Departure
| Time | N/A |
|---|---|
| Airport | Cibao International Airport (MDST) |
Arrival
| Time | 2026-04-30 06:37 |
|---|---|
| Airport | John F. Kennedy International Airport (KJFK) |
| Time | Latitude | Longitude | Altitude | Speed | Heading |
|---|---|---|---|---|---|
| 2026-04-30 06:22 | 40.12795 | -73.83120 | 3787 ft | 237 kts | 28° |
| 2026-04-30 06:22 | 40.14197 | -73.82074 | 3562 ft | 236 kts | 30° |
| 2026-04-30 06:22 | 40.15790 | -73.80853 | 3616 ft | 279 kts | 26° |
| 2026-04-30 06:23 | 40.17357 | -73.79712 | 5105 ft | 261 kts | 25° |
| 2026-04-30 06:23 | 40.18963 | -73.78492 | 5564 ft | 274 kts | 27° |
| 2026-04-30 06:23 | 40.20664 | -73.77171 | 5822 ft | 295 kts | 27° |
| 2026-04-30 06:23 | 40.22415 | -73.75804 | 5889 ft | 286 kts | 27° |
| 2026-04-30 06:24 | 40.24112 | -73.74474 | 5905 ft | 282 kts | 27° |
| 2026-04-30 06:24 | 40.25787 | -73.73153 | 5906 ft | 281 kts | 27° |
| 2026-04-30 06:24 | 40.27464 | -73.71830 | 5913 ft | 281 kts | 27° |
| 2026-04-30 06:24 | 40.29137 | -73.70508 | 5913 ft | 281 kts | 27° |
| 2026-04-30 06:25 | 40.30809 | -73.69188 | 5917 ft | 280 kts | 27° |
| 2026-04-30 06:25 | 40.32479 | -73.67869 | 5913 ft | 280 kts | 27° |
| 2026-04-30 06:25 | 40.34149 | -73.66556 | 5914 ft | 280 kts | 27° |
| 2026-04-30 06:25 | 40.35820 | -73.65239 | 5919 ft | 281 kts | 27° |
| 2026-04-30 06:26 | 40.37510 | -73.63948 | 5917 ft | 282 kts | 28° |
| 2026-04-30 06:26 | 40.39224 | -73.62685 | 5923 ft | 283 kts | 27° |
| 2026-04-30 06:26 | 40.40951 | -73.61429 | 5919 ft | 284 kts | 27° |
| 2026-04-30 06:26 | 40.42568 | -73.60253 | 5918 ft | 285 kts | 27° |
| 2026-04-30 06:27 | 40.44297 | -73.58996 | 5924 ft | 284 kts | 27° |
| 2026-04-30 06:27 | 40.46026 | -73.57739 | 5923 ft | 285 kts | 27° |
| 2026-04-30 06:27 | 40.47762 | -73.56475 | 5906 ft | 284 kts | 27° |
| 2026-04-30 06:27 | 40.49485 | -73.55224 | 5560 ft | 283 kts | 28° |
| 2026-04-30 06:28 | 40.51210 | -73.53992 | 5245 ft | 281 kts | 27° |
| 2026-04-30 06:28 | 40.52930 | -73.52770 | 4883 ft | 281 kts | 27° |
| 2026-04-30 06:28 | 40.54647 | -73.51564 | 4549 ft | 279 kts | 27° |
| 2026-04-30 06:28 | 40.56356 | -73.50376 | 4223 ft | 277 kts | 27° |
| 2026-04-30 06:29 | 40.58053 | -73.49215 | 3931 ft | 274 kts | 27° |
| 2026-04-30 06:29 | 40.59738 | -73.48082 | 3631 ft | 270 kts | 27° |
| 2026-04-30 06:29 | 40.61412 | -73.46975 | 3336 ft | 267 kts | 27° |
| 2026-04-30 06:29 | 40.63071 | -73.45896 | 3034 ft | 264 kts | 27° |
| 2026-04-30 06:30 | 40.64705 | -73.44879 | 2748 ft | 262 kts | 21° |
| 2026-04-30 06:30 | 40.66477 | -73.44580 | 2457 ft | 257 kts | 349° |
| 2026-04-30 06:30 | 40.67480 | -73.44959 | 2263 ft | 253 kts | 331° |
| 2026-04-30 06:30 | 40.67977 | -73.45330 | 2165 ft | 250 kts | 321° |
| 2026-04-30 06:31 | 40.69186 | -73.46921 | 1951 ft | 245 kts | 302° |
| 2026-04-30 06:31 | 40.70095 | -73.48768 | 1951 ft | 232 kts | 298° |
| 2026-04-30 06:31 | 40.70632 | -73.49940 | 1978 ft | 219 kts | 297° |
| 2026-04-30 06:31 | 40.71643 | -73.52157 | 1954 ft | 206 kts | 297° |
| 2026-04-30 06:32 | 40.72131 | -73.53227 | 1960 ft | 204 kts | 297° |
| 2026-04-30 06:32 | 40.72862 | -73.54826 | 1961 ft | 203 kts | 297° |
| 2026-04-30 06:32 | 40.73591 | -73.56421 | 1961 ft | 203 kts | 297° |
| 2026-04-30 06:32 | 40.74319 | -73.58013 | 1959 ft | 203 kts | 297° |
| 2026-04-30 06:33 | 40.75047 | -73.59605 | 1964 ft | 203 kts | 297° |
| 2026-04-30 06:33 | 40.75767 | -73.61200 | 1967 ft | 202 kts | 293° |
| 2026-04-30 06:33 | 40.76118 | -73.62947 | 1979 ft | 196 kts | 269° |
| 2026-04-30 06:33 | 40.76000 | -73.64684 | 1979 ft | 186 kts | 250° |
| 2026-04-30 06:34 | 40.75508 | -73.66198 | 2010 ft | 173 kts | 233° |
| 2026-04-30 06:34 | 40.74754 | -73.67370 | 1986 ft | 164 kts | 217° |
| 2026-04-30 06:34 | 40.73817 | -73.68201 | 1979 ft | 162 kts | 208° |
| 2026-04-30 06:34 | 40.72851 | -73.68959 | 1921 ft | 162 kts | 208° |
| 2026-04-30 06:35 | 40.71919 | -73.69692 | 1782 ft | 149 kts | 208° |
| 2026-04-30 06:35 | 40.71038 | -73.70383 | 1584 ft | 145 kts | 207° |
| 2026-04-30 06:35 | 40.70173 | -73.71061 | 1385 ft | 144 kts | 208° |
| 2026-04-30 06:35 | 40.69321 | -73.71728 | 1190 ft | 144 kts | 207° |
| 2026-04-30 06:36 | 40.68454 | -73.72407 | 983 ft | 146 kts | 208° |
| 2026-04-30 06:36 | 40.67578 | -73.73094 | 765 ft | 148 kts | 208° |
| 2026-04-30 06:36 | 40.66690 | -73.73789 | 571 ft | 149 kts | 207° |
| 2026-04-30 06:36 | 40.65795 | -73.74491 | 367 ft | 150 kts | 207° |
| 2026-04-30 06:37 | 40.64902 | -73.75204 | 157 ft | 150 kts | 208° |
| 2026-04-30 06:37 | 40.64025 | -73.75870 | 22 ft | 132 kts | 211° |
| 2026-04-30 06:37 | 40.63360 | -73.76390 | 22 ft | 92 kts | 210° |
| 2026-04-30 06:37 | 40.63004 | -73.76725 | 21 ft | 45 kts | 232° |
| 2026-04-30 06:38 | 40.62969 | -73.77040 | 20 ft | 33 kts | 296° |
| 2026-04-30 06:38 | 40.63070 | -73.77278 | 21 ft | 27 kts | 302° |
| 2026-04-30 06:38 | 40.63164 | -73.77472 | 23 ft | 23 kts | 302° |